createdAt,value
2019-02-09T00:00:23.260Z,99.99
2019-02-09T00:01:23.264Z,99.99
2019-02-09T00:02:23.275Z,99.99
2019-02-09T00:03:23.267Z,99.99
2019-02-09T00:04:23.281Z,99.99
2019-02-09T00:05:23.276Z,99.99
2019-02-09T00:06:23.275Z,99.99
2019-02-09T00:07:23.279Z,99.99
2019-02-09T00:08:23.279Z,99.99
2019-02-09T00:09:23.298Z,99.99
2019-02-09T00:10:23.288Z,99.99
2019-02-09T00:11:23.293Z,99.99
2019-02-09T00:12:23.296Z,99.99
2019-02-09T00:13:23.298Z,99.99
2019-02-09T00:14:23.295Z,99.99
2019-02-09T00:15:23.305Z,99.99
2019-02-09T00:16:23.315Z,99.99
2019-02-09T00:17:23.314Z,99.99
2019-02-09T00:18:23.315Z,99.99
2019-02-09T00:19:23.317Z,99.99
2019-02-09T00:20:23.373Z,99.99
2019-02-09T00:21:23.322Z,99.99
2019-02-09T00:22:23.330Z,99.99
2019-02-09T00:23:23.327Z,99.99
2019-02-09T00:24:23.344Z,99.99
2019-02-09T00:25:23.343Z,99.99
2019-02-09T00:26:23.347Z,99.99
2019-02-09T00:27:23.351Z,99.99
2019-02-09T00:28:23.347Z,99.99
2019-02-09T00:29:23.363Z,99.99
2019-02-09T00:30:23.358Z,99.99
2019-02-09T00:31:23.367Z,99.99
2019-02-09T00:32:23.359Z,99.99
2019-02-09T00:33:23.362Z,99.99
2019-02-09T00:34:23.371Z,99.99
2019-02-09T00:35:23.377Z,99.99
2019-02-09T00:36:23.374Z,99.99
2019-02-09T00:37:23.376Z,99.99
2019-02-09T00:38:23.380Z,99.99
2019-02-09T00:39:23.382Z,99.99
2019-02-09T00:40:23.386Z,99.99
2019-02-09T00:41:23.389Z,99.99
2019-02-09T00:42:23.389Z,99.99
2019-02-09T00:43:23.411Z,99.99
2019-02-09T00:44:23.412Z,99.99
2019-02-09T00:45:23.402Z,99.99
2019-02-09T00:46:23.410Z,99.99
2019-02-09T00:47:23.477Z,99.99
2019-02-09T00:48:23.416Z,99.99
2019-02-09T00:49:23.425Z,99.99
2019-02-09T00:50:23.417Z,99.99
2019-02-09T00:51:23.421Z,99.99
2019-02-09T00:52:23.429Z,99.99
2019-02-09T00:53:23.426Z,99.99
2019-02-09T00:54:23.436Z,99.99
2019-02-09T00:55:23.441Z,99.99
2019-02-09T00:56:23.439Z,99.99
2019-02-09T00:57:23.433Z,99.99
2019-02-09T00:58:23.442Z,99.99
2019-02-09T00:59:23.449Z,99.99
2019-02-09T01:00:23.461Z,99.99
2019-02-09T01:01:23.455Z,99.99
2019-02-09T01:02:23.463Z,99.99
2019-02-09T01:03:23.473Z,99.99
2019-02-09T01:04:23.460Z,99.99
2019-02-09T01:05:23.464Z,99.99
2019-02-09T01:06:23.466Z,99.99
2019-02-09T01:07:23.476Z,99.99
2019-02-09T01:08:23.484Z,99.99
2019-02-09T01:09:23.478Z,99.99
2019-02-09T01:10:23.513Z,99.99
2019-02-09T01:11:23.485Z,99.99
2019-02-09T01:12:23.484Z,99.99
2019-02-09T01:13:23.492Z,99.99
2019-02-09T01:14:23.496Z,99.99
2019-02-09T01:15:23.502Z,99.99
2019-02-09T01:16:23.510Z,99.99
2019-02-09T01:17:23.503Z,99.99
2019-02-09T01:18:23.502Z,99.99
2019-02-09T01:19:23.516Z,99.99
2019-02-09T01:20:23.511Z,99.99
2019-02-09T01:21:23.515Z,99.99
2019-02-09T01:22:23.521Z,99.99
2019-02-09T01:23:23.526Z,99.99
2019-02-09T01:24:23.521Z,99.99
2019-02-09T01:25:23.528Z,99.99
2019-02-09T01:26:23.530Z,99.99
2019-02-09T01:27:23.537Z,99.99
2019-02-09T01:28:23.538Z,99.99
2019-02-09T01:29:23.550Z,99.99
2019-02-09T01:30:23.547Z,99.99
2019-02-09T01:31:23.547Z,99.99
2019-02-09T01:32:23.551Z,99.99
2019-02-09T01:33:23.553Z,99.99
2019-02-09T01:34:23.552Z,99.99
2019-02-09T01:35:23.563Z,99.99
2019-02-09T01:36:23.563Z,99.99
2019-02-09T01:37:23.566Z,99.99
2019-02-09T01:38:23.571Z,99.99
2019-02-09T01:39:23.573Z,99.99
2019-02-09T01:40:23.576Z,99.99
2019-02-09T01:41:23.578Z,99.99
2019-02-09T01:42:23.575Z,99.99
2019-02-09T01:43:23.582Z,99.99
2019-02-09T01:44:23.595Z,99.99
2019-02-09T01:45:23.589Z,99.99
2019-02-09T01:46:23.595Z,99.99
2019-02-09T01:47:23.596Z,99.99
2019-02-09T01:48:23.597Z,99.99
2019-02-09T01:49:23.600Z,99.99
2019-02-09T01:50:23.604Z,99.99
2019-02-09T01:51:23.614Z,99.99
2019-02-09T01:52:23.611Z,99.99
2019-02-09T01:53:23.615Z,99.99
2019-02-09T01:54:23.624Z,99.99
2019-02-09T01:55:23.624Z,99.99
2019-02-09T01:56:23.624Z,99.99
2019-02-09T01:57:23.619Z,99.99
2019-02-09T01:58:23.635Z,99.99
2019-02-09T01:59:23.637Z,99.99
2019-02-09T02:00:23.637Z,99.99
2019-02-09T02:01:23.635Z,99.99
2019-02-09T02:02:23.645Z,99.99
2019-02-09T02:03:23.653Z,99.99
2019-02-09T02:04:23.661Z,99.99
2019-02-09T02:05:23.655Z,99.99
2019-02-09T02:06:23.656Z,99.99
2019-02-09T02:07:23.663Z,99.99
2019-02-09T02:08:23.661Z,99.99
2019-02-09T02:09:23.664Z,99.99
2019-02-09T02:10:23.671Z,99.99
2019-02-09T02:11:23.668Z,99.99
2019-02-09T02:12:23.677Z,99.99
2019-02-09T02:13:23.684Z,99.99
2019-02-09T02:14:23.693Z,99.99
2019-02-09T02:15:23.689Z,99.99
2019-02-09T02:16:23.688Z,99.99
2019-02-09T02:17:23.698Z,99.99
2019-02-09T02:18:23.699Z,99.99
2019-02-09T02:19:23.709Z,99.99
2019-02-09T02:20:23.706Z,99.99
2019-02-09T02:21:23.713Z,99.99
2019-02-09T02:22:23.712Z,99.99
2019-02-09T02:23:23.713Z,99.99
2019-02-09T02:24:23.720Z,99.99
2019-02-09T02:25:23.792Z,99.99
2019-02-09T02:26:23.727Z,99.99
2019-02-09T02:27:23.730Z,99.99
2019-02-09T02:28:23.734Z,99.99
2019-02-09T02:29:23.747Z,99.99
2019-02-09T02:30:23.743Z,99.99
2019-02-09T02:31:23.747Z,99.99
2019-02-09T02:32:23.741Z,99.99
2019-02-09T02:33:23.750Z,99.99
2019-02-09T02:34:23.750Z,99.99
2019-02-09T02:35:23.749Z,99.99
2019-02-09T02:36:23.762Z,99.99
2019-02-09T02:37:23.754Z,99.99
2019-02-09T02:38:23.767Z,99.99
2019-02-09T02:39:23.769Z,99.99
2019-02-09T02:40:23.768Z,99.99
2019-02-09T02:41:23.772Z,99.99
2019-02-09T02:42:23.774Z,99.99
2019-02-09T02:43:23.781Z,99.99
2019-02-09T02:44:23.786Z,99.99
2019-02-09T02:45:23.785Z,99.99
2019-02-09T02:46:23.794Z,99.99
2019-02-09T02:47:23.801Z,99.99
2019-02-09T02:48:23.815Z,99.99
2019-02-09T02:49:23.802Z,99.99
2019-02-09T02:50:23.806Z,99.99
2019-02-09T02:51:23.804Z,99.99
2019-02-09T02:52:23.813Z,99.99
2019-02-09T02:53:23.812Z,99.99
2019-02-09T02:54:23.822Z,99.99
2019-02-09T02:55:23.830Z,99.99
2019-02-09T02:56:23.825Z,99.99
2019-02-09T02:57:23.829Z,99.99
2019-02-09T02:58:23.830Z,99.99
2019-02-09T02:59:23.836Z,99.99
2019-02-09T03:00:31.799Z,99.99
2019-02-09T03:01:23.866Z,99.99
2019-02-09T03:02:23.853Z,99.99
2019-02-09T03:03:23.853Z,99.99
2019-02-09T03:04:23.861Z,99.99
2019-02-09T03:05:23.856Z,99.99
2019-02-09T03:06:23.869Z,99.99
2019-02-09T03:07:23.859Z,99.99
2019-02-09T03:08:23.861Z,99.99
2019-02-09T03:09:23.872Z,99.99
2019-02-09T03:10:23.869Z,99.99
2019-02-09T03:11:23.875Z,99.99
2019-02-09T03:12:23.874Z,99.99
2019-02-09T03:13:23.886Z,99.99
2019-02-09T03:14:23.883Z,99.99
2019-02-09T03:15:23.888Z,99.99
2019-02-09T03:16:23.890Z,99.99
2019-02-09T03:17:23.896Z,99.99
2019-02-09T03:18:23.897Z,99.99
2019-02-09T03:19:23.904Z,99.99
2019-02-09T03:20:23.907Z,99.99
2019-02-09T03:21:23.911Z,99.99
2019-02-09T03:22:23.917Z,99.99
2019-02-09T03:23:23.931Z,99.99
2019-02-09T03:24:23.917Z,99.99
2019-02-09T03:25:23.923Z,99.99
2019-02-09T03:26:23.927Z,99.99
2019-02-09T03:27:23.932Z,99.99
2019-02-09T03:28:23.938Z,99.99
2019-02-09T03:29:23.933Z,99.99
2019-02-09T03:30:23.941Z,99.99
2019-02-09T03:31:23.980Z,99.99
2019-02-09T03:32:23.947Z,99.99
2019-02-09T03:33:23.957Z,99.99
2019-02-09T03:34:23.955Z,99.99
2019-02-09T03:35:23.956Z,99.99
2019-02-09T03:36:23.961Z,99.99
2019-02-09T03:37:23.967Z,99.99
2019-02-09T03:38:23.967Z,99.99
2019-02-09T03:39:23.981Z,99.99
2019-02-09T03:40:23.975Z,99.99
2019-02-09T03:41:23.990Z,99.99
2019-02-09T03:42:23.987Z,99.99
2019-02-09T03:43:23.985Z,99.99
2019-02-09T03:44:23.989Z,99.99
2019-02-09T03:45:23.989Z,99.99
2019-02-09T03:46:23.994Z,99.99
2019-02-09T03:47:24.002Z,99.99
2019-02-09T03:48:24.005Z,99.99
2019-02-09T03:49:24.009Z,99.99
2019-02-09T03:50:24.002Z,99.99
2019-02-09T03:51:24.014Z,99.99
2019-02-09T03:52:24.028Z,99.99
2019-02-09T03:53:24.019Z,99.99
2019-02-09T03:54:24.026Z,99.99
2019-02-09T03:55:24.034Z,99.99
2019-02-09T03:56:24.027Z,99.99
2019-02-09T03:57:24.037Z,99.99
2019-02-09T03:58:24.039Z,99.99
2019-02-09T03:59:24.046Z,99.99
2019-02-09T04:00:24.093Z,99.99
2019-02-09T04:01:24.053Z,99.99
2019-02-09T04:02:24.055Z,99.99
2019-02-09T04:03:24.055Z,99.99
2019-02-09T04:04:24.063Z,99.99
2019-02-09T04:05:24.063Z,99.99
2019-02-09T04:06:24.075Z,99.99
2019-02-09T04:07:24.074Z,99.99
2019-02-09T04:08:24.083Z,99.99
2019-02-09T04:09:24.082Z,99.99
2019-02-09T04:10:24.236Z,99.99
2019-02-09T04:11:24.095Z,99.99
2019-02-09T04:12:24.089Z,99.99
2019-02-09T04:13:24.098Z,99.99
2019-02-09T04:14:24.101Z,99.99
2019-02-09T04:15:24.101Z,99.99
2019-02-09T04:16:24.117Z,99.99
2019-02-09T04:17:24.123Z,99.99
2019-02-09T04:18:24.117Z,99.99
2019-02-09T04:19:24.121Z,99.99
2019-02-09T04:20:24.119Z,99.99
2019-02-09T04:21:24.127Z,99.99
2019-02-09T04:22:24.128Z,99.99
2019-02-09T04:23:24.138Z,99.99
2019-02-09T04:24:24.138Z,99.99
2019-02-09T04:25:24.149Z,99.99
2019-02-09T04:26:24.146Z,99.99
2019-02-09T04:27:24.149Z,99.99
2019-02-09T04:28:24.148Z,99.99
2019-02-09T04:29:24.156Z,99.99
2019-02-09T04:30:24.168Z,99.99
2019-02-09T04:31:24.165Z,99.99
2019-02-09T04:32:24.165Z,99.99
2019-02-09T04:33:24.168Z,99.99
2019-02-09T04:34:24.185Z,99.99
2019-02-09T04:35:24.181Z,99.99
2019-02-09T04:36:24.187Z,99.99
2019-02-09T04:37:24.178Z,99.99
2019-02-09T04:38:24.187Z,99.99
2019-02-09T04:39:24.192Z,99.99
2019-02-09T04:40:24.196Z,99.99
2019-02-09T04:41:24.198Z,99.99
2019-02-09T04:42:24.202Z,99.99
2019-02-09T04:43:24.207Z,99.99
2019-02-09T04:44:24.211Z,99.99
2019-02-09T04:45:24.216Z,99.99
2019-02-09T04:46:24.219Z,99.99
2019-02-09T04:47:24.222Z,99.99
2019-02-09T04:48:24.222Z,99.99
2019-02-09T04:49:24.231Z,99.99
2019-02-09T04:50:24.240Z,99.99
2019-02-09T04:51:24.235Z,99.99
2019-02-09T04:52:24.247Z,99.99
2019-02-09T04:53:24.243Z,99.99
2019-02-09T04:54:24.251Z,99.99
2019-02-09T04:55:24.256Z,99.99
2019-02-09T04:56:24.262Z,99.99
2019-02-09T04:57:24.271Z,99.99
2019-02-09T04:58:24.264Z,99.99
2019-02-09T04:59:24.267Z,99.99
2019-02-09T05:00:24.270Z,99.99
2019-02-09T05:01:24.277Z,99.99
2019-02-09T05:02:24.280Z,99.99
2019-02-09T05:03:24.282Z,99.99
2019-02-09T05:04:24.290Z,99.99
2019-02-09T05:05:24.289Z,99.99
2019-02-09T05:06:24.290Z,99.99
2019-02-09T05:07:24.304Z,99.99
2019-02-09T05:08:24.306Z,99.99
2019-02-09T05:09:24.307Z,99.99
2019-02-09T05:10:24.317Z,99.99
2019-02-09T05:11:24.318Z,99.99
2019-02-09T05:12:24.323Z,99.99
2019-02-09T05:13:24.325Z,99.99
2019-02-09T05:14:24.328Z,99.99
2019-02-09T05:15:24.831Z,99.99
2019-02-09T05:16:24.336Z,99.99
2019-02-09T05:17:24.344Z,99.99
2019-02-09T05:18:24.343Z,99.99
2019-02-09T05:19:24.350Z,99.99
2019-02-09T05:20:25.140Z,99.99
2019-02-09T05:21:24.354Z,99.99
2019-02-09T05:22:24.362Z,99.99
2019-02-09T05:23:24.361Z,99.99
2019-02-09T05:24:24.366Z,99.99
2019-02-09T05:25:24.379Z,99.99
2019-02-09T05:26:24.384Z,99.99
2019-02-09T05:27:24.378Z,99.99
2019-02-09T05:28:24.382Z,99.99
2019-02-09T05:29:24.386Z,99.99
2019-02-09T05:30:24.392Z,99.99
2019-02-09T05:31:24.398Z,99.99
2019-02-09T05:32:24.402Z,99.99
2019-02-09T05:33:24.413Z,99.99
2019-02-09T05:34:24.412Z,99.99
2019-02-09T05:35:24.411Z,99.99
2019-02-09T05:36:24.414Z,99.99
2019-02-09T05:37:24.419Z,99.99
2019-02-09T05:38:24.422Z,99.99
2019-02-09T05:39:24.436Z,99.99
2019-02-09T05:40:24.428Z,99.99
2019-02-09T05:41:24.435Z,99.99
2019-02-09T05:42:24.440Z,99.99
2019-02-09T05:43:24.443Z,99.99
2019-02-09T05:44:24.451Z,99.99
2019-02-09T05:45:24.461Z,99.99
2019-02-09T05:46:24.461Z,99.99
2019-02-09T05:47:24.464Z,99.99
2019-02-09T05:48:24.485Z,99.99
2019-02-09T05:49:24.476Z,99.99
2019-02-09T05:50:24.469Z,99.99
2019-02-09T05:51:24.482Z,99.99
2019-02-09T05:52:24.477Z,99.99
2019-02-09T05:53:24.478Z,99.99
2019-02-09T05:54:24.485Z,99.99
2019-02-09T05:55:24.488Z,99.99
2019-02-09T05:56:24.493Z,99.99
2019-02-09T05:57:24.499Z,99.99
2019-02-09T05:58:24.496Z,99.99
2019-02-09T05:59:24.511Z,99.99
2019-02-09T06:00:24.510Z,99.99
2019-02-09T06:01:31.796Z,99.99
2019-02-09T06:02:24.519Z,99.99
2019-02-09T06:03:24.526Z,99.99
2019-02-09T06:04:24.524Z,99.99
2019-02-09T06:05:24.532Z,99.99
2019-02-09T06:06:24.528Z,99.99
2019-02-09T06:07:24.545Z,99.99
2019-02-09T06:08:24.539Z,99.99
2019-02-09T06:09:24.539Z,99.99
2019-02-09T06:10:24.556Z,99.99
2019-02-09T06:11:24.551Z,99.99
2019-02-09T06:12:24.550Z,99.99
2019-02-09T06:13:24.555Z,99.99
2019-02-09T06:14:24.560Z,99.99
2019-02-09T06:15:24.570Z,99.99
2019-02-09T06:16:24.571Z,99.99
2019-02-09T06:17:24.570Z,99.99
2019-02-09T06:18:24.579Z,99.99
2019-02-09T06:19:24.594Z,99.99
2019-02-09T06:20:24.585Z,99.99
2019-02-09T06:21:24.587Z,99.99
2019-02-09T06:22:24.595Z,99.99
2019-02-09T06:23:24.621Z,99.99
2019-02-09T06:24:24.601Z,99.99
2019-02-09T06:25:24.617Z,99.99
2019-02-09T06:26:24.608Z,99.99
2019-02-09T06:27:24.613Z,99.99
2019-02-09T06:28:24.617Z,99.99
2019-02-09T06:29:24.625Z,99.99
2019-02-09T06:30:24.624Z,99.99
2019-02-09T06:31:24.630Z,99.99
2019-02-09T06:32:24.632Z,99.99
2019-02-09T06:33:24.635Z,99.99
2019-02-09T06:34:24.638Z,99.99
2019-02-09T06:35:24.645Z,99.99
2019-02-09T06:36:24.646Z,99.99
2019-02-09T06:37:24.649Z,99.99
2019-02-09T06:38:24.662Z,99.99
2019-02-09T06:39:24.659Z,99.99
2019-02-09T06:40:24.678Z,99.99
2019-02-09T06:41:24.674Z,99.99
2019-02-09T06:42:24.678Z,99.99
2019-02-09T06:43:24.679Z,99.99
2019-02-09T06:44:24.678Z,99.99
2019-02-09T06:45:24.686Z,99.99
2019-02-09T06:46:24.684Z,99.99
2019-02-09T06:47:24.692Z,99.99
2019-02-09T06:48:24.697Z,99.99
2019-02-09T06:49:24.699Z,99.99
2019-02-09T06:50:24.718Z,99.99
2019-02-09T06:51:24.709Z,99.99
2019-02-09T06:52:24.714Z,99.99
2019-02-09T06:53:24.719Z,99.99
2019-02-09T06:54:24.724Z,99.99
2019-02-09T06:55:24.730Z,99.99
2019-02-09T06:56:24.737Z,99.99
2019-02-09T06:57:24.735Z,99.99
2019-02-09T06:58:24.739Z,99.99
2019-02-09T07:00:56.590Z,99.99
2019-02-09T07:01:56.557Z,99.99
2019-02-09T07:02:56.568Z,99.99
2019-02-09T07:03:56.569Z,99.99
2019-02-09T07:04:56.573Z,99.99
2019-02-09T07:05:56.579Z,99.99
2019-02-09T07:06:56.588Z,99.99
2019-02-09T07:07:56.584Z,99.99
2019-02-09T07:08:56.592Z,99.99
2019-02-09T07:09:56.596Z,99.99
2019-02-09T07:10:56.593Z,99.99
2019-02-09T07:11:56.602Z,99.99
2019-02-09T07:12:56.607Z,99.99
2019-02-09T07:13:56.616Z,99.99
2019-02-09T07:14:56.616Z,99.99
2019-02-09T07:15:56.624Z,99.99
2019-02-09T07:16:56.623Z,99.99
2019-02-09T07:17:56.633Z,99.99
2019-02-09T07:18:56.633Z,99.99
2019-02-09T07:19:56.636Z,99.99
2019-02-09T07:20:56.637Z,99.99
2019-02-09T07:21:56.637Z,99.99
2019-02-09T07:22:56.647Z,99.99
2019-02-09T07:23:56.650Z,99.99
2019-02-09T07:24:56.654Z,99.99
2019-02-09T07:25:56.660Z,99.99
2019-02-09T07:26:56.664Z,99.99
2019-02-09T07:27:56.669Z,99.99
2019-02-09T07:28:56.668Z,99.99
2019-02-09T07:29:56.674Z,99.99
2019-02-09T07:30:56.679Z,99.99
2019-02-09T07:31:56.810Z,99.99
2019-02-09T07:32:56.684Z,99.99
2019-02-09T07:33:56.687Z,99.99
2019-02-09T07:34:56.693Z,99.99
2019-02-09T07:35:56.699Z,99.99
2019-02-09T07:36:56.704Z,99.99
2019-02-09T07:37:56.709Z,99.99
2019-02-09T07:38:56.713Z,99.99
2019-02-09T07:39:56.714Z,99.99
2019-02-09T07:40:56.723Z,99.99
2019-02-09T07:41:56.728Z,99.99
2019-02-09T07:42:56.731Z,99.99
2019-02-09T07:43:56.737Z,99.99
2019-02-09T07:44:56.734Z,99.99
2019-02-09T07:45:56.743Z,99.99
2019-02-09T07:46:56.752Z,99.99
2019-02-09T07:47:56.757Z,99.99
2019-02-09T07:48:56.747Z,99.99
2019-02-09T07:49:56.759Z,99.99
2019-02-09T07:50:56.769Z,99.99
2019-02-09T07:51:56.768Z,99.99
2019-02-09T07:52:56.776Z,99.99
2019-02-09T07:53:56.771Z,99.99
2019-02-09T07:54:56.783Z,99.99
2019-02-09T07:55:56.794Z,99.99
2019-02-09T07:56:56.791Z,99.99
2019-02-09T07:57:56.793Z,99.99
2019-02-09T07:58:56.806Z,99.99
2019-02-09T07:59:56.801Z,99.99
2019-02-09T08:00:56.808Z,99.99
2019-02-09T08:02:04.222Z,99.99
2019-02-09T08:02:56.821Z,99.99
2019-02-09T08:03:56.825Z,99.99
2019-02-09T08:04:56.824Z,99.99
2019-02-09T08:05:56.860Z,99.99
2019-02-09T08:06:56.845Z,99.99
2019-02-09T08:07:56.837Z,99.99
2019-02-09T08:08:56.845Z,99.99
2019-02-09T08:09:56.847Z,99.99
2019-02-09T08:10:56.851Z,99.99
2019-02-09T08:11:56.903Z,99.99
2019-02-09T08:12:56.864Z,99.99
2019-02-09T08:13:56.865Z,99.99
2019-02-09T08:14:56.873Z,99.99
2019-02-09T08:15:56.874Z,99.99
2019-02-09T08:16:56.880Z,99.99
2019-02-09T08:17:56.886Z,99.99
2019-02-09T08:18:56.886Z,99.99
2019-02-09T08:19:56.895Z,99.99
2019-02-09T08:20:56.899Z,99.99
2019-02-09T08:21:56.985Z,99.99
2019-02-09T08:22:56.907Z,99.99
2019-02-09T08:23:56.911Z,99.99
2019-02-09T08:24:56.920Z,99.99
2019-02-09T08:25:56.936Z,99.99
2019-02-09T08:26:56.943Z,99.99
2019-02-09T08:27:56.942Z,99.99
2019-02-09T08:28:56.941Z,99.99
2019-02-09T08:29:56.946Z,99.99
2019-02-09T08:30:56.951Z,99.99
2019-02-09T08:31:56.955Z,99.99
2019-02-09T08:32:56.955Z,99.99
2019-02-09T08:33:56.966Z,99.99
2019-02-09T08:34:56.973Z,99.99
2019-02-09T08:35:56.974Z,99.99
2019-02-09T08:36:56.990Z,99.99
2019-02-09T08:37:56.984Z,99.99
2019-02-09T08:38:56.993Z,99.99
2019-02-09T08:39:56.992Z,99.99
2019-02-09T08:40:56.999Z,99.99
2019-02-09T08:41:56.998Z,99.99
2019-02-09T08:42:57.005Z,99.99
2019-02-09T08:43:57.015Z,99.99
2019-02-09T08:44:57.015Z,99.99
2019-02-09T08:45:57.023Z,99.99
2019-02-09T08:46:57.026Z,99.99
2019-02-09T08:47:57.037Z,99.99
2019-02-09T08:48:57.041Z,99.74
2019-02-09T08:49:57.053Z,99.99
2019-02-09T08:50:57.056Z,99.27
2019-02-09T08:51:57.055Z,99.55
2019-02-09T08:52:57.074Z,99.36
2019-02-09T08:53:57.127Z,99.74
2019-02-09T08:54:57.077Z,99.99
2019-02-09T08:55:57.074Z,99.99
2019-02-09T08:56:57.082Z,99.99
2019-02-09T08:57:57.082Z,99.99
2019-02-09T08:58:57.090Z,99.99
2019-02-09T08:59:57.095Z,99.99
2019-02-09T09:00:57.111Z,99.93
2019-02-09T09:01:57.112Z,99.74
2019-02-09T09:02:57.119Z,99.55
2019-02-09T09:03:57.137Z,99.99
2019-02-09T09:04:57.135Z,99.99
2019-02-09T09:05:57.136Z,99.84
2019-02-09T09:07:57.174Z,99.99
2019-02-09T09:08:57.209Z,99.65
2019-02-09T09:09:57.170Z,99.41
2019-02-09T09:10:57.165Z,99.36
2019-02-09T09:11:57.183Z,99.65
2019-02-09T09:12:57.177Z,98.98
2019-02-09T09:13:57.192Z,98.18
2019-02-09T09:14:57.245Z,96.55
2019-02-09T09:15:57.203Z,95.51
2019-02-09T09:16:57.214Z,96.55
2019-02-09T09:17:57.215Z,95.98
2019-02-09T09:18:57.222Z,95.98
2019-02-09T09:19:57.270Z,96.55
2019-02-09T09:20:57.301Z,96.46
2019-02-09T09:21:57.245Z,96.27
2019-02-09T09:22:57.255Z,96.17
2019-02-09T09:23:57.261Z,95.98
2019-02-09T09:24:57.265Z,95.32
2019-02-09T09:25:57.277Z,94.84
2019-02-09T09:26:57.297Z,94.84
2019-02-09T09:27:57.305Z,94.56
2019-02-09T09:28:57.324Z,95.32
2019-02-09T09:29:57.323Z,94.37
2019-02-09T09:30:57.316Z,95.03
2019-02-09T09:31:57.334Z,93.74
2019-02-09T09:32:57.339Z,93.03
2019-02-09T09:33:57.355Z,93.98
2019-02-09T09:34:57.355Z,93.70
2019-02-09T09:35:57.361Z,93.70
2019-02-09T09:36:57.365Z,92.74
2019-02-09T09:37:57.379Z,92.18
2019-02-09T09:38:57.391Z,92.55
2019-02-09T09:39:57.387Z,92.27
2019-02-09T09:40:57.409Z,91.79
2019-02-09T09:41:57.400Z,91.79
2019-02-09T09:42:57.411Z,92.03
2019-02-09T09:43:57.419Z,91.79
2019-02-09T09:44:57.427Z,92.41
2019-02-09T09:45:57.428Z,92.08
2019-02-09T09:46:57.440Z,91.89
2019-02-09T09:47:57.453Z,93.03
2019-02-09T09:48:57.464Z,94.65
2019-02-09T09:49:57.464Z,96.17
2019-02-09T09:50:57.483Z,97.31
2019-02-09T09:51:57.470Z,97.03
2019-02-09T09:52:57.481Z,98.27
2019-02-09T09:53:57.481Z,97.99
2019-02-09T09:54:57.498Z,96.36
2019-02-09T09:55:57.494Z,96.17
2019-02-09T09:56:57.513Z,96.65
2019-02-09T09:57:57.506Z,96.46
2019-02-09T09:58:57.531Z,97.41
2019-02-09T09:59:57.532Z,97.22
2019-02-09T10:00:57.528Z,96.98
2019-02-09T10:01:57.532Z,97.22
2019-02-09T10:02:57.540Z,96.98
2019-02-09T10:03:57.544Z,97.93
2019-02-09T10:04:57.549Z,98.32
2019-02-09T10:05:57.557Z,98.41
2019-02-09T10:06:57.562Z,97.89
2019-02-09T10:07:57.579Z,95.75
2019-02-09T10:08:57.571Z,93.98
2019-02-09T10:09:57.584Z,93.32
2019-02-09T10:10:57.593Z,93.08
2019-02-09T10:11:57.610Z,93.93
2019-02-09T10:12:57.605Z,94.32
2019-02-09T10:13:57.621Z,94.32
2019-02-09T10:14:57.624Z,93.84
2019-02-09T10:15:57.634Z,94.03
2019-02-09T10:16:57.638Z,93.08
2019-02-09T10:17:57.656Z,92.65
2019-02-09T10:18:57.672Z,91.50
2019-02-09T10:19:57.667Z,90.50
2019-02-09T10:20:57.670Z,89.74
2019-02-09T10:21:57.691Z,88.12
2019-02-09T10:22:57.693Z,88.26
2019-02-09T10:23:57.722Z,87.64
2019-02-09T10:24:57.717Z,86.06
2019-02-09T10:25:57.731Z,86.16
2019-02-09T10:26:57.741Z,85.77
2019-02-09T10:27:57.761Z,85.49
2019-02-09T10:28:57.760Z,84.58
2019-02-09T10:29:57.772Z,84.92
2019-02-09T10:30:57.791Z,85.73
2019-02-09T10:31:57.792Z,85.83
2019-02-09T10:32:57.812Z,86.74
2019-02-09T10:33:57.817Z,87.50
2019-02-09T10:34:57.833Z,87.16
2019-02-09T10:35:57.848Z,85.54
2019-02-09T10:36:57.867Z,85.41
2019-02-09T10:37:57.862Z,85.78
2019-02-09T10:38:57.878Z,87.21
2019-02-09T10:39:57.886Z,87.98
2019-02-09T10:40:57.903Z,87.31
2019-02-09T10:41:57.907Z,87.88
2019-02-09T10:42:57.913Z,87.40
2019-02-09T10:43:57.925Z,87.55
2019-02-09T10:44:57.939Z,88.17
2019-02-09T10:45:57.941Z,86.65
2019-02-09T10:46:57.946Z,87.02
2019-02-09T10:47:57.964Z,87.60
2019-02-09T10:48:57.968Z,88.12
2019-02-09T10:49:57.973Z,87.93
2019-02-09T10:50:57.981Z,87.27
2019-02-09T10:51:57.990Z,88.22
2019-02-09T10:52:58.000Z,88.22
2019-02-09T10:53:58.003Z,88.31
2019-02-09T10:54:58.006Z,87.93
2019-02-09T10:55:58.025Z,88.22
2019-02-09T10:56:58.026Z,88.12
2019-02-09T10:57:58.035Z,87.84
2019-02-09T10:58:58.038Z,87.74
2019-02-09T10:59:58.052Z,87.46
2019-02-09T11:00:58.061Z,87.65
2019-02-09T11:01:58.062Z,86.83
2019-02-09T11:02:58.075Z,85.97
2019-02-09T11:03:58.082Z,85.50
2019-02-09T11:04:58.083Z,84.34
2019-02-09T11:05:58.102Z,81.43
2019-02-09T11:06:58.099Z,80.28
2019-02-09T11:07:58.103Z,81.10
2019-02-09T11:08:58.181Z,82.30
2019-02-09T11:09:58.129Z,83.59
2019-02-09T11:10:58.159Z,85.02
2019-02-09T11:11:58.145Z,85.31
2019-02-09T11:12:58.149Z,84.92
2019-02-09T11:13:58.159Z,85.60
2019-02-09T11:14:58.163Z,86.16
2019-02-09T11:15:58.185Z,85.84
2019-02-09T11:16:58.179Z,85.27
2019-02-09T11:17:58.192Z,85.74
2019-02-09T11:18:58.198Z,85.55
2019-02-09T11:19:58.208Z,86.45
2019-02-09T11:20:58.228Z,86.07
2019-02-09T11:21:58.223Z,85.78
2019-02-09T11:22:58.271Z,85.97
2019-02-09T11:23:58.245Z,86.41
2019-02-09T11:24:58.244Z,86.79
2019-02-09T11:25:58.253Z,86.88
2019-02-09T11:26:58.263Z,85.93
2019-02-09T11:27:58.269Z,85.97
2019-02-09T11:28:58.275Z,85.78
2019-02-09T11:29:58.282Z,85.50
2019-02-09T11:30:58.291Z,85.50
2019-02-09T11:31:58.295Z,85.31
2019-02-09T11:33:01.868Z,85.60
2019-02-09T11:33:58.309Z,85.69
2019-02-09T11:34:58.323Z,85.78
2019-02-09T11:35:59.911Z,85.88
2019-02-09T11:36:58.332Z,85.78
2019-02-09T11:37:58.340Z,86.07
2019-02-09T11:38:58.334Z,86.45
2019-02-09T11:39:58.365Z,85.88
2019-02-09T11:40:58.362Z,84.83
2019-02-09T11:41:58.369Z,84.55
2019-02-09T11:42:58.398Z,84.83
2019-02-09T11:43:58.382Z,84.74
2019-02-09T11:44:58.391Z,85.74
2019-02-09T11:45:58.394Z,85.74
2019-02-09T11:46:58.397Z,84.98
2019-02-09T11:47:58.403Z,85.74
2019-02-09T11:48:58.408Z,86.22
2019-02-09T11:49:58.528Z,85.46
2019-02-09T11:50:59.098Z,85.21
2019-02-09T11:51:58.431Z,85.41
2019-02-09T11:52:58.439Z,84.50
2019-02-09T11:53:58.447Z,85.50
2019-02-09T11:54:58.454Z,85.17
2019-02-09T11:55:58.460Z,85.36
2019-02-09T11:56:58.454Z,86.32
2019-02-09T11:57:58.472Z,86.69
2019-02-09T11:58:58.480Z,86.69
2019-02-09T11:59:58.484Z,86.22
2019-02-09T12:00:58.487Z,86.32
2019-02-09T12:01:58.494Z,86.60
2019-02-09T12:03:03.902Z,86.79
2019-02-09T12:03:58.509Z,87.55
2019-02-09T12:04:58.516Z,87.46
2019-02-09T12:05:58.522Z,85.97
2019-02-09T12:06:58.531Z,86.51
2019-02-09T12:07:58.532Z,86.88
2019-02-09T12:08:58.535Z,86.98
2019-02-09T12:09:58.547Z,86.69
2019-02-09T12:10:58.550Z,86.60
2019-02-09T12:11:58.559Z,86.69
2019-02-09T12:12:58.564Z,86.60
2019-02-09T12:13:58.572Z,85.55
2019-02-09T12:14:58.576Z,85.41
2019-02-09T12:15:58.581Z,85.21
2019-02-09T12:16:58.588Z,85.50
2019-02-09T12:17:58.606Z,85.50
2019-02-09T12:18:58.617Z,85.12
2019-02-09T12:19:58.609Z,85.08
2019-02-09T12:20:58.617Z,85.17
2019-02-09T12:21:58.621Z,85.50
2019-02-09T12:22:58.635Z,85.02
2019-02-09T12:23:58.643Z,85.02
2019-02-09T12:24:58.647Z,84.74
2019-02-09T12:25:58.648Z,84.26
2019-02-09T12:26:58.649Z,83.88
2019-02-09T12:27:58.665Z,84.20
2019-02-09T12:28:58.676Z,81.86
2019-02-09T12:29:58.681Z,81.63
2019-02-09T12:30:58.680Z,82.20
2019-02-09T12:31:58.699Z,81.48
2019-02-09T12:32:58.693Z,80.43
2019-02-09T12:33:58.708Z,81.01
2019-02-09T12:34:58.734Z,81.73
2019-02-09T12:35:58.717Z,82.68
2019-02-09T12:36:58.733Z,82.40
2019-02-09T12:37:58.750Z,81.54
2019-02-09T12:38:58.773Z,81.73
2019-02-09T12:39:58.778Z,82.20
2019-02-09T12:40:58.759Z,83.12
2019-02-09T12:41:58.763Z,83.12
2019-02-09T12:42:58.773Z,83.21
2019-02-09T12:43:58.787Z,82.83
2019-02-09T12:44:58.789Z,82.73
2019-02-09T12:45:58.789Z,83.31
2019-02-09T12:46:58.812Z,82.73
2019-02-09T12:47:58.808Z,81.59
2019-02-09T12:48:58.827Z,82.17
2019-02-09T12:49:58.824Z,82.45
2019-02-09T12:50:58.834Z,82.92
2019-02-09T12:51:58.839Z,83.69
2019-02-09T12:52:58.847Z,83.21
2019-02-09T12:53:58.873Z,83.02
2019-02-09T12:54:58.854Z,83.50